• Join FlightAware (Why Join?)
  • Login
  • US Flag 
04:11AM EDT


 

Airport Tracker/Info


-or-


 

Live Flight TrackerFlight Track Log ✈ UCA4846 ✈ 22-Aug-2013 ✈ KBWI - KEWR

Flight Track Log - Related Links

Times and Time Zones

All times are in EDT time to prevent confusion due to time zone crossing. See the UCA4846 flight status page for this flight to view local times or setup timezone preferences in your user account.

Time Position Orientation Groundspeed Altitude Reporting Facility
EDT Latitude Longitude Course Direction KTS MPH feet Rate Location/Type
07:31PM 39.2000 -76.7000 38° Northeast 180 207 2,400  Level Potomac TRACON
07:32PM 39.2500 -76.6667 27° Northeast 178 205 4,100 1,500 Climbing Potomac TRACON
07:33PM 39.2667 -76.6167 67° East 203 234 5,300 1,140 Climbing Potomac TRACON
07:34PM 39.2833 -76.5333 75° East 219 252 6,500 1,080 Climbing Potomac TRACON
07:35PM 39.3000 -76.4667 72° East 221 254 7,600 1,020 Climbing Potomac TRACON
07:36PM 39.1983 -76.1683 38° Northeast  Level FlightAware Approximate
07:36PM 39.3167 -76.3833 75° East 232 267 8,600  Level Potomac TRACON
07:37PM 39.3333 -76.3000 75° East 237 273 9,700 1,020 Climbing Potomac TRACON
07:38PM 39.3667 -76.2333 57° Northeast 235 270 10,600 480 Climbing Potomac TRACON
07:39PM 39.4167 -76.0833 67° East 271 312 11,000 120 Climbing Philadelphia TRACON
07:40PM 39.4500 -75.9833 67° East 277 319 11,000  Level Philadelphia TRACON
07:41PM 39.4667 -75.9000 75° East 274 315 11,000  Level Philadelphia TRACON
07:42PM 39.5000 -75.8167 63° Northeast 272 313 11,000  Level Philadelphia TRACON
07:43PM 39.5667 -75.7500 38° Northeast 263 303 11,000  Level Philadelphia TRACON
07:44PM 39.6167 -75.6833 46° Northeast 266 306 11,000  Level Philadelphia TRACON
07:45PM 39.6667 -75.6333 38° Northeast 264 304 11,000 -180 Level Philadelphia TRACON
07:46PM 39.7000 -75.5500 63° Northeast 280 322 10,700 -420 Descending Philadelphia TRACON
07:47PM 39.7333 -75.4333 70° East 286 329 10,200 -360 Descending Philadelphia TRACON
07:48PM 39.7500 -75.3500 75° East 287 330 10,000 -120 Descending Philadelphia TRACON
07:49PM 39.7833 -75.2500 67° East 277 319 10,000  Level Philadelphia TRACON
07:50PM 39.8000 -75.1667 75° East 275 316 10,000  Level Philadelphia TRACON
07:51PM 39.8333 -75.0667 67° East 273 314 10,000 -300 Level Philadelphia TRACON
07:52PM 39.8667 -74.9833 62° Northeast 279 321 9,400 -780 Descending Philadelphia TRACON
07:53PM 39.9167 -74.9000 52° Northeast 287 330 8,500 -900 Descending Philadelphia TRACON
07:54PM 39.9833 -74.8167 44° Northeast 281 323 7,600 -600 Descending Philadelphia TRACON
07:56PM 40.0500 -74.7167 49° Northeast 273 314 7,000 -300 Descending New York TRACON
07:57PM 40.1000 -74.6500 46° Northeast 262 302 7,000  Level New York TRACON
07:58PM 40.1500 -74.5667 52° Northeast 261 300 7,000  Level New York TRACON
07:59PM 40.2167 -74.5500 11° North 253 291 7,000 -240 Level New York TRACON
08:00PM 40.2833 -74.5333 11° North 263 303 6,600 -480 Descending New York TRACON
08:01PM 40.3667 -74.5333 360° North 267 307 6,100 -300 Descending New York TRACON
08:02PM 40.4333 -74.5333 360° North 266 306 6,000 -60 Descending New York TRACON
08:03PM 40.5167 -74.5333 360° North 258 297 6,000  Level New York TRACON
08:04PM 40.5833 -74.5333 360° North 256 295 6,000  Level New York TRACON
08:05PM 40.6333 -74.5333 360° North 253 291 6,000  Level New York TRACON
08:06PM 40.7167 -74.5333 360° North 253 291 6,000  Level New York TRACON
08:07PM 40.7833 -74.4833 30° Northeast 258 297 6,000 -300 Level New York TRACON
08:08PM 40.8500 -74.4500 21° North 264 304 5,400 -540 Descending New York TRACON
08:09PM 40.9000 -74.4000 37° Northeast 270 311 5,000 -240 Descending New York TRACON
08:10PM 40.9167 -74.3167 75° East 242 278 5,000 -360 Level New York TRACON
08:11PM 40.9333 -74.2333 75° East 226 260 4,400 -540 Descending New York TRACON
08:12PM 40.9167 -74.1500 105° East 205 236 4,000 -240 Descending New York TRACON
08:13PM 40.9000 -74.1000 114° Southeast 204 235 3,900 -540 Descending New York TRACON
08:14PM 40.8500 -74.0667 153° Southeast 194 223 3,000 -900 Descending New York TRACON
08:15PM 40.8000 -74.1000 207° Southwest 175 201 2,100 -900 Descending New York TRACON
08:16PM 40.7500 -74.1167 194° South 155 178 1,200 -780 Descending New York TRACON
08:17PM 40.7167 -74.1500 217° Southwest 117 135 600 -600 Descending New York TRACON